Time;durP1;ratioP1;P1;durP2;ratioP2;P2;SDS_P1;SDS_P2;PMS_P1;PMS_P2;Temp;Humidity;BMP_temperature;BMP_pressure;BME280_temperature;BME280_humidity;BME280_pressure;Samples;Min_cycle;Max_cycle;Signal;HPM_P1;HPM_P2
2021/01/08 00:02:06;;;;;;;19.25;13.73;;;2.90;94.00;;;;;;5092382;28;20024;-81
2021/01/08 00:04:32;;;;;;;17.02;12.70;;;2.90;94.10;;;;;;5092191;28;20024;-82
2021/01/08 00:06:57;;;;;;;17.10;12.95;;;2.90;94.10;;;;;;5075622;28;20036;-82
2021/01/08 00:09:24;;;;;;;17.27;12.80;;;2.90;94.20;;;;;;5075391;28;20041;-82
2021/01/08 00:11:54;;;;;;;22.27;13.35;;;2.90;94.10;;;;;;5093465;28;20077;-82
2021/01/08 00:14:19;;;;;;;15.95;11.63;;;2.90;94.10;;;;;;5075635;28;20032;-81
2021/01/08 00:16:45;;;;;;;14.45;10.68;;;2.90;94.10;;;;;;5075000;28;20046;-82
2021/01/08 00:19:13;;;;;;;14.93;10.90;;;2.90;94.10;;;;;;5093425;28;20032;-82
2021/01/08 00:21:42;;;;;;;15.45;11.05;;;2.90;94.10;;;;;;5075579;28;20032;-82
2021/01/08 00:24:12;;;;;;;13.40;9.63;;;2.90;94.20;;;;;;5074841;28;20028;-77
2021/01/08 00:26:38;;;;;;;14.25;10.10;;;2.90;94.20;;;;;;5092139;28;20093;-77
2021/01/08 00:29:09;;;;;;;13.90;10.18;;;2.80;94.20;;;;;;5091905;28;20072;-77
2021/01/08 00:31:39;;;;;;;12.35;9.30;;;2.80;94.20;;;;;;5091911;28;20067;-77
2021/01/08 00:34:06;;;;;;;12.88;8.05;;;2.80;94.20;;;;;;5091735;28;20024;-77
2021/01/08 00:36:33;;;;;;;10.25;8.50;;;2.90;94.30;;;;;;5074879;28;20024;-77
2021/01/08 00:39:00;;;;;;;12.35;8.82;;;2.80;94.30;;;;;;5091709;28;20016;-77
2021/01/08 00:41:35;;;;;;;11.63;8.75;;;2.90;94.60;;;;;;5092963;28;20020;-77
2021/01/08 00:44:02;;;;;;;19.95;9.40;;;2.90;94.30;;;;;;5091860;28;20389;-77
2021/01/08 00:46:36;;;;;;;11.57;9.10;;;2.90;94.30;;;;;;5092542;28;20035;-77
2021/01/08 00:49:03;;;;;;;11.05;8.80;;;2.90;94.30;;;;;;5091451;28;20016;-77
2021/01/08 00:51:29;;;;;;;14.88;10.60;;;2.90;94.30;;;;;;5091530;28;20388;-77
2021/01/08 00:53:55;;;;;;;12.05;9.30;;;2.90;94.30;;;;;;5074933;28;20027;-77
2021/01/08 00:56:21;;;;;;;13.82;9.93;;;3.00;94.40;;;;;;5091801;28;20107;-77
2021/01/08 00:58:47;;;;;;;16.48;10.48;;;3.00;94.40;;;;;;5073202;28;20065;-77
2021/01/08 01:01:14;;;;;;;16.50;11.52;;;3.00;94.40;;;;;;5071364;28;20029;-77
2021/01/08 01:03:40;;;;;;;15.20;10.50;;;3.00;94.30;;;;;;5071717;28;20059;-77
2021/01/08 01:06:06;;;;;;;16.63;10.18;;;3.00;94.30;;;;;;5071453;28;20056;-77
2021/01/08 01:08:32;;;;;;;16.55;10.80;;;3.10;94.30;;;;;;5069627;28;20031;-77
2021/01/08 01:10:58;;;;;;;14.80;10.30;;;3.00;94.30;;;;;;5091900;28;20039;-77
2021/01/08 01:13:24;;;;;;;13.18;10.00;;;3.00;94.30;;;;;;5091444;28;20020;-77
2021/01/08 01:15:49;;;;;;;12.52;9.25;;;3.10;94.30;;;;;;5074760;28;20388;-77
2021/01/08 01:18:15;;;;;;;12.52;8.75;;;3.00;94.20;;;;;;5057949;28;20052;-77
2021/01/08 01:20:41;;;;;;;11.52;9.00;;;3.10;94.20;;;;;;5091584;28;20031;-77
2021/01/08 01:23:07;;;;;;;13.90;10.02;;;3.00;94.20;;;;;;5093169;28;20028;-77
2021/01/08 01:25:33;;;;;;;14.32;9.55;;;3.10;94.30;;;;;;5095242;28;20021;-77
2021/01/08 01:27:58;;;;;;;17.08;10.18;;;3.10;94.20;;;;;;5061789;28;20035;-77
2021/01/08 01:30:24;;;;;;;17.55;11.52;;;3.10;94.20;;;;;;5061583;28;20384;-76
2021/01/08 01:32:49;;;;;;;13.02;10.05;;;3.10;94.20;;;;;;5057715;28;20032;-77
2021/01/08 01:35:15;;;;;;;13.48;10.73;;;3.10;94.20;;;;;;5086023;28;20032;-77
2021/01/08 01:37:41;;;;;;;15.95;10.52;;;3.10;94.20;;;;;;5094777;28;20510;-77
2021/01/08 01:40:07;;;;;;;21.95;12.93;;;3.10;94.10;;;;;;5094978;28;20028;-84
2021/01/08 01:42:33;;;;;;;16.33;11.80;;;3.10;94.10;;;;;;5095159;28;20020;-84
2021/01/08 01:44:59;;;;;;;15.07;11.95;;;3.10;94.10;;;;;;5095478;28;20032;-85
2021/01/08 01:47:25;;;;;;;19.40;13.77;;;3.10;94.00;;;;;;5095246;28;20028;-85
2021/01/08 01:49:52;;;;;;;15.32;12.13;;;3.10;94.00;;;;;;5094964;28;20484;-85
2021/01/08 01:52:18;;;;;;;15.52;12.10;;;3.10;94.10;;;;;;5078786;28;20038;-85
2021/01/08 01:54:43;;;;;;;18.98;13.07;;;3.10;94.10;;;;;;5095154;28;20024;-86
2021/01/08 01:57:09;;;;;;;21.10;14.15;;;3.10;94.30;;;;;;5074734;28;20047;-85
2021/01/08 01:59:34;;;;;;;16.35;13.20;;;3.10;94.00;;;;;;5058386;28;20021;-85
2021/01/08 02:02:06;;;;;;;16.77;12.73;;;3.10;94.00;;;;;;5074955;28;20469;-85
2021/01/08 02:04:32;;;;;;;19.52;13.55;;;3.10;94.00;;;;;;5091553;28;20023;-86
2021/01/08 02:06:58;;;;;;;16.67;13.50;;;3.00;94.00;;;;;;5077598;28;20152;-85
2021/01/08 02:09:24;;;;;;;16.48;12.50;;;3.10;94.00;;;;;;5061462;28;20032;-85
2021/01/08 02:11:55;;;;;;;21.35;13.77;;;3.10;94.00;;;;;;5076376;28;20455;-85
2021/01/08 02:14:25;;;;;;;12.95;10.80;;;3.10;94.00;;;;;;5094753;28;20028;-85
2021/01/08 02:16:52;;;;;;;12.70;11.00;;;3.10;94.20;;;;;;5094189;28;20075;-86
2021/01/08 02:19:49;;;;;;;16.38;12.68;;;3.10;93.90;;;;;;5094429;28;20020;-85
2021/01/08 02:22:27;;;;;;;15.90;11.98;;;3.10;94.00;;;;;;5094290;28;20128;-85
2021/01/08 02:25:05;;;;;;;15.55;12.13;;;3.10;94.00;;;;;;5113607;28;20020;-85
2021/01/08 02:27:34;;;;;;;14.77;12.80;;;3.10;94.00;;;;;;5101637;28;20028;-85
2021/01/08 02:30:00;;;;;;;17.75;13.25;;;3.00;94.00;;;;;;5094173;28;20027;-85
2021/01/08 02:32:26;;;;;;;18.42;13.88;;;3.00;94.00;;;;;;5077007;28;20040;-85
2021/01/08 02:34:53;;;;;;;19.70;14.35;;;3.00;94.00;;;;;;5094562;28;20400;-85
2021/01/08 02:37:19;;;;;;;18.10;13.75;;;3.00;94.00;;;;;;5094240;28;20032;-85
2021/01/08 02:39:46;;;;;;;14.90;12.40;;;3.00;93.90;;;;;;5077186;28;20481;-85
2021/01/08 02:42:14;;;;;;;16.23;12.50;;;3.00;93.90;;;;;;5073457;28;20047;-85
2021/01/08 02:44:40;;;;;;;15.68;11.82;;;3.00;93.90;;;;;;5078187;28;20085;-85
2021/01/08 02:47:06;;;;;;;17.33;11.77;;;3.00;94.00;;;;;;5077300;28;20028;-85
2021/01/08 02:49:32;;;;;;;15.07;11.77;;;3.00;94.00;;;;;;5094133;28;21957;-85
2021/01/08 02:52:00;;;;;;;11.95;8.98;;;3.00;94.00;;;;;;5073577;28;20044;-85
2021/01/08 02:54:26;;;;;;;12.40;10.13;;;3.00;94.00;;;;;;5091864;28;20032;-85
2021/01/08 02:56:54;;;;;;;13.93;9.23;;;3.00;94.00;;;;;;5093865;28;20074;-86
2021/01/08 02:59:22;;;;;;;13.90;9.60;;;3.00;94.00;;;;;;5094151;28;20413;-85
2021/01/08 03:01:48;;;;;;;15.40;10.18;;;3.00;93.90;;;;;;5094603;28;20323;-85
2021/01/08 03:04:14;;;;;;;14.02;9.48;;;3.00;93.90;;;;;;5093871;28;20024;-85
2021/01/08 03:06:41;;;;;;;12.02;9.00;;;2.90;94.00;;;;;;5093646;28;20365;-82
2021/01/08 03:09:07;;;;;;;12.10;9.40;;;2.90;94.00;;;;;;5076349;28;20063;-82
2021/01/08 03:11:33;;;;;;;11.45;8.98;;;2.90;94.00;;;;;;5076239;28;20056;-82
2021/01/08 03:13:59;;;;;;;16.27;9.57;;;2.90;94.10;;;;;;5093059;28;20061;-82
2021/01/08 03:16:24;;;;;;;16.00;10.10;;;2.90;94.00;;;;;;5076182;28;20032;-82
2021/01/08 03:18:50;;;;;;;14.70;10.00;;;3.00;94.30;;;;;;5092549;28;20055;-82
2021/01/08 03:21:15;;;;;;;13.45;9.93;;;3.00;94.00;;;;;;5093139;28;20028;-82
2021/01/08 03:23:41;;;;;;;10.93;8.32;;;3.00;94.00;;;;;;5059344;28;20020;-81
2021/01/08 03:26:07;;;;;;;13.32;9.18;;;2.90;94.00;;;;;;5072390;28;20044;-82
2021/01/08 03:28:33;;;;;;;13.00;9.45;;;2.90;94.00;;;;;;5056081;28;20037;-81
2021/01/08 03:30:59;;;;;;;13.70;9.98;;;2.90;93.90;;;;;;5055856;28;20431;-81
2021/01/08 03:33:24;;;;;;;14.02;9.95;;;2.90;93.90;;;;;;5055746;28;20036;-81
2021/01/08 03:35:50;;;;;;;11.38;9.48;;;2.90;94.00;;;;;;5092287;28;20028;-81
2021/01/08 03:38:15;;;;;;;17.13;12.00;;;2.90;94.00;;;;;;5092462;28;20055;-82
2021/01/08 03:40:41;;;;;;;15.80;11.25;;;2.90;94.00;;;;;;5075750;28;20127;-82
2021/01/08 03:43:08;;;;;;;15.55;11.60;;;2.90;94.00;;;;;;5092691;28;20016;-82
2021/01/08 03:45:34;;;;;;;17.40;12.00;;;2.90;94.00;;;;;;5092348;28;20571;-81
2021/01/08 03:47:59;;;;;;;16.90;12.13;;;2.90;94.00;;;;;;5093304;28;20551;-84
2021/01/08 03:50:25;;;;;;;20.27;12.43;;;2.90;94.00;;;;;;5057640;28;20032;-85
2021/01/08 03:52:51;;;;;;;17.55;12.32;;;3.00;94.00;;;;;;5092959;28;20036;-85
2021/01/08 03:55:16;;;;;;;15.13;11.63;;;3.00;94.00;;;;;;5075876;28;20032;-85
2021/01/08 03:57:42;;;;;;;17.02;12.40;;;3.00;93.90;;;;;;5075522;28;20039;-85
2021/01/08 04:00:08;;;;;;;17.02;11.77;;;3.00;93.90;;;;;;5076139;28;20485;-85
2021/01/08 04:02:34;;;;;;;16.92;11.98;;;3.00;93.80;;;;;;5072487;28;20099;-85
2021/01/08 04:05:00;;;;;;;18.35;12.85;;;3.00;93.90;;;;;;5072772;28;20031;-85
2021/01/08 04:07:25;;;;;;;19.63;13.02;;;3.00;93.90;;;;;;5086362;28;20028;-85
2021/01/08 04:09:51;;;;;;;15.25;11.68;;;3.00;93.90;;;;;;5072604;28;20452;-86
2021/01/08 04:12:16;;;;;;;16.00;11.48;;;3.00;93.80;;;;;;5052318;28;20067;-85
2021/01/08 04:14:42;;;;;;;18.42;12.68;;;3.00;93.80;;;;;;5072669;28;20033;-85
2021/01/08 04:17:08;;;;;;;19.52;11.98;;;3.00;93.80;;;;;;5072106;28;20052;-84
2021/01/08 04:19:33;;;;;;;20.60;13.18;;;3.00;93.80;;;;;;5084734;28;20380;-77
2021/01/08 04:21:59;;;;;;;16.25;12.52;;;2.90;93.70;;;;;;5054724;28;20086;-78
2021/01/08 04:24:25;;;;;;;19.52;13.05;;;2.90;93.80;;;;;;5067380;28;20107;-77
2021/01/08 04:26:50;;;;;;;20.40;13.20;;;2.90;93.90;;;;;;5086663;28;20032;-77
2021/01/08 04:29:16;;;;;;;21.75;12.70;;;3.00;93.90;;;;;;5090871;28;20454;-78
2021/01/08 04:31:41;;;;;;;17.63;12.25;;;2.90;93.90;;;;;;5074210;28;20031;-77
2021/01/08 04:34:08;;;;;;;18.73;12.90;;;2.90;94.00;;;;;;5073739;28;20062;-78
2021/01/08 04:36:34;;;;;;;17.38;12.15;;;3.00;94.00;;;;;;5090735;28;20020;-77
2021/01/08 04:39:00;;;;;;;20.48;13.07;;;2.90;94.00;;;;;;5091319;28;20036;-78
2021/01/08 04:41:26;;;;;;;16.27;11.75;;;3.00;94.00;;;;;;5091586;28;20032;-77
2021/01/08 04:43:52;;;;;;;16.20;11.55;;;3.00;94.00;;;;;;5093001;28;20020;-77
2021/01/08 04:46:30;;;;;;;18.02;11.77;;;2.90;94.00;;;;;;5058474;28;20028;-85
2021/01/08 04:49:00;;;;;;;16.70;11.70;;;2.90;94.00;;;;;;5092303;28;20031;-85
2021/01/08 04:51:27;;;;;;;17.20;11.77;;;2.90;93.90;;;;;;5091965;28;20032;-85
2021/01/08 04:53:52;;;;;;;16.90;11.65;;;2.90;93.90;;;;;;5091789;28;20020;-77
2021/01/08 04:56:21;;;;;;;15.82;11.13;;;2.90;94.00;;;;;;5074900;28;20089;-82
2021/01/08 04:58:47;;;;;;;16.95;11.50;;;2.90;93.90;;;;;;5075274;28;20032;-82
2021/01/08 05:01:15;;;;;;;13.70;10.30;;;2.90;93.90;;;;;;5095292;28;20024;-82
2021/01/08 05:03:41;;;;;;;13.68;10.07;;;2.90;93.90;;;;;;5095369;28;20070;-82
2021/01/08 05:06:06;;;;;;;15.23;9.90;;;2.90;93.90;;;;;;5095486;28;20020;-82
2021/01/08 05:08:32;;;;;;;14.57;10.60;;;2.90;93.90;;;;;;5078783;28;20070;-82
2021/01/08 05:10:57;;;;;;;16.63;11.63;;;2.90;93.80;;;;;;5074778;28;20059;-82
2021/01/08 05:13:34;;;;;;;14.10;10.23;;;2.90;93.80;;;;;;5075246;28;20033;-82
2021/01/08 05:16:03;;;;;;;13.75;10.63;;;2.90;93.90;;;;;;5075099;28;20086;-81
2021/01/08 05:18:32;;;;;;;14.95;11.27;;;3.00;93.90;;;;;;5075018;28;20057;-78
2021/01/08 05:20:58;;;;;;;12.77;10.10;;;2.90;93.80;;;;;;5083499;28;20028;-77
2021/01/08 05:23:27;;;;;;;16.05;11.32;;;2.90;93.80;;;;;;5095305;28;20077;-77
2021/01/08 05:25:54;;;;;;;16.15;11.07;;;3.00;93.90;;;;;;5088316;28;20027;-77
2021/01/08 05:28:19;;;;;;;19.73;11.95;;;3.00;93.90;;;;;;5095077;28;20891;-77
2021/01/08 05:30:48;;;;;;;14.73;11.10;;;3.00;93.90;;;;;;5077908;28;20146;-77
2021/01/08 05:33:15;;;;;;;11.32;8.82;;;2.90;93.90;;;;;;5078073;28;20127;-77
2021/01/08 05:35:42;;;;;;;13.52;9.52;;;2.90;93.90;;;;;;5078304;28;20032;-85
2021/01/08 05:38:08;;;;;;;11.25;8.32;;;3.00;93.90;;;;;;5095034;28;20043;-84
2021/01/08 05:40:38;;;;;;;13.35;9.40;;;2.90;93.90;;;;;;5103486;28;20024;-85
2021/01/08 05:43:04;;;;;;;16.08;10.60;;;2.90;93.90;;;;;;5095126;28;20028;-85
2021/01/08 05:45:30;;;;;;;13.50;9.60;;;2.90;94.00;;;;;;5095444;28;20020;-85
2021/01/08 05:47:58;;;;;;;16.92;10.20;;;2.90;94.00;;;;;;5095181;28;20475;-78
2021/01/08 05:50:27;;;;;;;14.02;10.13;;;2.90;94.00;;;;;;5094706;28;20077;-77
2021/01/08 05:53:09;;;;;;;16.13;11.27;;;2.90;93.90;;;;;;5094839;28;20024;-78
2021/01/08 05:55:36;;;;;;;14.25;10.25;;;2.90;93.90;;;;;;5095799;28;20419;-78
2021/01/08 05:58:23;;;;;;;14.98;10.40;;;2.90;93.90;;;;;;5094526;28;20035;-77
2021/01/08 06:01:02;;;;;;;14.23;10.30;;;2.90;93.80;;;;;;5094468;28;20028;-77
2021/01/08 06:03:29;;;;;;;18.98;10.93;;;2.90;93.90;;;;;;5094381;28;20024;-78
2021/01/08 06:05:56;;;;;;;16.55;10.20;;;2.80;93.80;;;;;;5094104;28;20027;-77
2021/01/08 06:08:47;;;;;;;17.35;10.60;;;2.80;93.80;;;;;;5094073;28;20039;-78
2021/01/08 06:11:18;;;;;;;12.82;10.05;;;2.80;93.80;;;;;;5081959;28;20103;-78
2021/01/08 06:13:45;;;;;;;14.02;10.20;;;2.80;93.80;;;;;;5077869;28;20028;-78
2021/01/08 06:16:18;;;;;;;16.67;11.00;;;2.90;93.80;;;;;;5093845;28;20020;-78
2021/01/08 06:18:48;;;;;;;15.45;10.93;;;2.80;93.80;;;;;;5092317;28;20089;-78
2021/01/08 06:21:15;;;;;;;16.92;11.40;;;2.80;93.80;;;;;;5094831;28;20020;-78
2021/01/08 06:23:44;;;;;;;15.60;9.80;;;2.80;93.70;;;;;;5076387;28;20028;-77
2021/01/08 06:26:20;;;;;;;15.90;10.50;;;2.80;93.80;;;;;;5093351;28;20480;-77
2021/01/08 06:28:50;;;;;;;13.63;10.00;;;2.80;93.90;;;;;;5095129;28;20031;-78
2021/01/08 06:31:21;;;;;;;13.40;9.32;;;2.80;93.90;;;;;;5093687;28;20020;-78
2021/01/08 06:33:56;;;;;;;13.48;9.52;;;2.80;93.80;;;;;;5093948;28;20060;-78
2021/01/08 06:36:28;;;;;;;15.55;10.32;;;2.80;93.80;;;;;;5092899;28;20051;-78
2021/01/08 06:38:57;;;;;;;11.73;9.82;;;2.90;93.80;;;;;;5093179;28;20033;-78
2021/01/08 06:41:23;;;;;;;14.60;10.35;;;2.90;93.70;;;;;;5093525;28;20024;-78
2021/01/08 06:43:51;;;;;;;13.30;10.13;;;2.90;93.70;;;;;;5094910;28;20103;-78
2021/01/08 06:46:25;;;;;;;15.52;10.10;;;2.90;93.60;;;;;;5094750;28;20106;-83
2021/01/08 06:48:54;;;;;;;15.13;10.30;;;2.90;93.60;;;;;;5093757;28;20035;-83
2021/01/08 06:51:26;;;;;;;16.85;8.88;;;2.90;93.70;;;;;;5093629;28;20488;-84
2021/01/08 06:53:55;;;;;;;17.73;11.65;;;2.90;93.70;;;;;;5095104;28;20396;-83
2021/01/08 06:56:31;;;;;;;16.10;10.65;;;2.90;93.70;;;;;;5094874;28;20054;-84
2021/01/08 06:58:57;;;;;;;18.98;11.02;;;2.90;93.70;;;;;;5095058;28;20024;-83
2021/01/08 07:01:53;;;;;;;22.85;11.38;;;2.90;93.70;;;;;;5093737;28;20362;-83
2021/01/08 07:04:26;;;;;;;17.30;11.25;;;3.00;93.70;;;;;;5095023;28;20442;-84
2021/01/08 07:06:57;;;;;;;16.42;10.60;;;2.90;93.70;;;;;;5094730;28;20376;-84
2021/01/08 07:09:34;;;;;;;15.13;10.05;;;3.00;93.70;;;;;;5076549;28;20020;-83
2021/01/08 07:12:00;;;;;;;14.35;9.45;;;2.90;93.70;;;;;;5093530;28;20016;-83
2021/01/08 07:14:26;;;;;;;15.77;10.02;;;3.00;93.80;;;;;;5094644;28;20073;-83
2021/01/08 07:16:54;;;;;;;18.33;10.90;;;3.00;93.80;;;;;;5076119;28;20123;-84
2021/01/08 07:19:22;;;;;;;15.38;9.60;;;3.00;93.80;;;;;;5076503;28;20138;-83
2021/01/08 07:21:50;;;;;;;15.43;9.80;;;3.00;93.80;;;;;;5076008;28;20492;-83
2021/01/08 07:24:43;;;;;;;13.45;9.30;;;3.10;93.80;;;;;;5094422;28;20043;-83
2021/01/08 07:27:24;;;;;;;14.30;8.90;;;3.10;93.80;;;;;;5092426;28;20039;-78
2021/01/08 07:29:58;;;;;;;14.68;8.48;;;3.20;94.10;;;;;;5094251;28;20040;-77
2021/01/08 07:32:42;;;;;;;13.95;9.50;;;3.20;93.80;;;;;;5092804;28;20031;-77
2021/01/08 07:35:17;;;;;;;12.00;8.45;;;3.20;93.80;;;;;;5093075;28;20028;-77
2021/01/08 07:38:08;;;;;;;13.43;9.10;;;3.20;93.70;;;;;;5089705;28;20089;-78
2021/01/08 07:40:34;;;;;;;14.38;9.23;;;3.20;93.80;;;;;;5072319;28;20384;-77
2021/01/08 07:43:12;;;;;;;13.80;8.93;;;3.30;93.70;;;;;;5072455;28;20039;-77
2021/01/08 07:45:45;;;;;;;12.73;8.93;;;3.30;93.70;;;;;;5068267;28;20050;-77
2021/01/08 07:48:34;;;;;;;26.17;11.48;;;3.30;93.70;;;;;;5092813;28;20028;-77
2021/01/08 07:51:11;;;;;;;15.50;9.60;;;3.30;93.70;;;;;;5093737;28;20020;-77
2021/01/08 07:53:46;;;;;;;14.38;9.00;;;3.30;93.70;;;;;;5091800;28;20024;-77
2021/01/08 07:56:11;;;;;;;15.68;8.40;;;3.30;93.80;;;;;;5092314;28;20025;-77
2021/01/08 07:58:37;;;;;;;16.20;9.68;;;3.30;93.80;;;;;;5092287;28;20043;-78
2021/01/08 08:01:04;;;;;;;18.55;10.02;;;3.30;93.80;;;;;;5075352;28;20024;-77
2021/01/08 08:03:30;;;;;;;16.33;9.82;;;3.30;93.80;;;;;;5092215;28;20118;-77
2021/01/08 08:05:56;;;;;;;12.70;9.50;;;3.40;94.10;;;;;;5075086;28;20118;-77
2021/01/08 08:08:23;;;;;;;22.50;11.07;;;3.40;93.70;;;;;;5075128;28;20489;-77
2021/01/08 08:10:49;;;;;;;17.95;11.25;;;3.40;93.70;;;;;;5075404;28;20032;-77
2021/01/08 08:13:15;;;;;;;17.58;9.63;;;3.40;93.70;;;;;;5091941;28;20028;-77
2021/01/08 08:15:48;;;;;;;14.65;10.05;;;3.40;93.70;;;;;;5093358;28;20103;-77
2021/01/08 08:18:14;;;;;;;18.95;10.18;;;3.40;93.80;;;;;;5093655;28;20056;-78
2021/01/08 08:20:40;;;;;;;17.27;10.05;;;3.50;93.80;;;;;;5092084;28;20032;-77
2021/01/08 08:23:16;;;;;;;18.23;10.50;;;3.50;93.80;;;;;;5075353;28;20020;-77
2021/01/08 08:25:42;;;;;;;21.00;11.73;;;3.50;93.80;;;;;;5093131;28;20031;-77
2021/01/08 08:28:08;;;;;;;22.48;12.57;;;3.50;93.70;;;;;;5092132;28;20057;-77
2021/01/08 08:30:34;;;;;;;22.17;12.90;;;3.50;93.70;;;;;;5058590;28;20109;-77
2021/01/08 08:33:03;;;;;;;19.10;11.73;;;3.50;93.70;;;;;;5092032;28;20034;-76
2021/01/08 08:35:28;;;;;;;22.38;12.65;;;3.50;93.70;;;;;;5095879;28;20026;-77
2021/01/08 08:37:57;;;;;;;23.95;13.77;;;3.50;94.00;;;;;;5096025;28;20028;-77
2021/01/08 08:40:30;;;;;;;25.52;14.27;;;3.60;94.10;;;;;;5075742;28;20051;-77
2021/01/08 08:42:57;;;;;;;22.17;13.27;;;3.60;93.90;;;;;;5059175;28;20031;-77
2021/01/08 08:45:27;;;;;;;21.38;13.48;;;3.60;93.90;;;;;;5075821;28;20399;-77
2021/01/08 08:47:56;;;;;;;24.95;13.82;;;3.60;93.90;;;;;;5089475;28;20032;-77
2021/01/08 08:50:23;;;;;;;21.83;13.57;;;3.70;93.90;;;;;;5095964;28;20422;-77
2021/01/08 08:52:49;;;;;;;26.00;14.25;;;3.70;93.90;;;;;;5097111;28;20258;-77
2021/01/08 08:55:25;;;;;;;22.33;13.05;;;3.80;93.80;;;;;;5079062;28;20081;-76
2021/01/08 08:58:00;;;;;;;23.52;13.88;;;3.70;93.80;;;;;;5095767;28;20047;-76
2021/01/08 09:00:27;;;;;;;17.48;12.30;;;3.80;93.80;;;;;;5079916;28;20047;-76
2021/01/08 09:02:52;;;;;;;20.20;13.15;;;3.80;93.80;;;;;;5095571;28;20070;-77
2021/01/08 09:05:18;;;;;;;20.70;13.20;;;3.80;93.80;;;;;;5096806;28;20024;-76
2021/01/08 09:07:46;;;;;;;21.80;12.98;;;3.80;93.80;;;;;;5062096;28;20369;-77
2021/01/08 09:10:15;;;;;;;21.50;13.35;;;3.80;93.80;;;;;;5096910;28;20027;-76
2021/01/08 09:12:59;;;;;;;21.80;13.13;;;3.80;93.70;;;;;;5096793;28;20519;-77
2021/01/08 09:15:30;;;;;;;17.33;11.50;;;3.80;93.70;;;;;;5096760;28;20418;-76
2021/01/08 09:18:11;;;;;;;17.55;11.15;;;3.80;93.70;;;;;;5096394;28;20055;-76
2021/01/08 09:20:49;;;;;;;13.73;10.18;;;3.90;94.00;;;;;;5095362;28;20085;-76
2021/01/08 09:23:16;;;;;;;17.98;11.48;;;3.90;93.70;;;;;;5096558;28;20103;-76
2021/01/08 09:25:43;;;;;;;15.40;10.10;;;3.90;93.60;;;;;;5078332;28;20495;-76
2021/01/08 09:28:16;;;;;;;12.57;9.00;;;3.90;93.70;;;;;;5095271;28;20531;-76
2021/01/08 09:30:51;;;;;;;14.75;10.52;;;4.00;93.70;;;;;;5095492;28;20407;-76
2021/01/08 09:33:17;;;;;;;16.40;11.77;;;4.00;93.60;;;;;;5095023;28;20680;-76
2021/01/08 09:35:45;;;;;;;15.35;11.48;;;4.00;93.50;;;;;;5078360;28;20115;-77
2021/01/08 09:38:14;;;;;;;18.42;10.48;;;4.10;93.50;;;;;;5094917;28;20477;-77
2021/01/08 09:40:40;;;;;;;13.95;8.82;;;4.10;93.50;;;;;;5078053;28;20119;-77
2021/01/08 09:43:13;;;;;;;13.73;9.00;;;4.20;93.40;;;;;;5094735;28;20487;-77
2021/01/08 09:45:38;;;;;;;13.40;9.15;;;4.20;93.40;;;;;;5093904;28;20508;-77
2021/01/08 09:48:04;;;;;;;11.85;8.90;;;4.20;93.30;;;;;;5078378;28;20118;-76
2021/01/08 09:50:32;;;;;;;9.77;7.13;;;4.20;93.30;;;;;;5094814;28;20024;-76
2021/01/08 09:53:10;;;;;;;10.47;7.53;;;4.20;93.20;;;;;;5062069;28;20032;-76
2021/01/08 09:55:36;;;;;;;9.82;7.38;;;4.20;93.10;;;;;;5094176;28;20263;-77
2021/01/08 09:58:02;;;;;;;11.43;5.25;;;4.20;93.10;;;;;;5077416;28;20043;-76
2021/01/08 10:00:29;;;;;;;7.65;5.75;;;4.10;92.80;;;;;;5095918;28;20024;-77
2021/01/08 10:02:56;;;;;;;9.18;6.30;;;4.10;92.90;;;;;;5094644;28;20483;-77
2021/01/08 10:05:22;;;;;;;8.40;5.50;;;4.10;93.00;;;;;;5094464;28;20032;-77
2021/01/08 10:07:48;;;;;;;10.20;6.55;;;4.10;92.90;;;;;;5094378;28;20388;-77
2021/01/08 10:10:16;;;;;;;16.02;8.02;;;4.10;92.80;;;;;;5078088;28;20119;-77
2021/01/08 10:12:49;;;;;;;10.27;7.28;;;4.10;92.90;;;;;;5093533;28;20038;-77
2021/01/08 10:15:17;;;;;;;8.05;5.97;;;4.20;93.00;;;;;;5094351;28;20028;-77
2021/01/08 10:17:52;;;;;;;8.50;5.90;;;4.20;92.90;;;;;;5094265;28;20036;-77
2021/01/08 10:20:20;;;;;;;9.18;6.22;;;4.20;93.00;;;;;;5094056;28;20032;-77
2021/01/08 10:22:50;;;;;;;12.85;6.35;;;4.30;92.90;;;;;;5094022;28;20020;-77
2021/01/08 10:25:28;;;;;;;10.23;5.82;;;4.30;92.80;;;;;;5095317;28;20027;-77
2021/01/08 10:27:55;;;;;;;10.88;5.07;;;4.40;92.90;;;;;;5072572;28;20028;-76
2021/01/08 10:30:21;;;;;;;8.00;4.90;;;4.40;92.80;;;;;;5076754;28;20484;-78
2021/01/08 10:32:49;;;;;;;5.45;4.25;;;4.40;92.70;;;;;;5094940;28;20103;-81
2021/01/08 10:35:18;;;;;;;5.13;4.15;;;4.40;92.60;;;;;;5076868;28;20035;-76
2021/01/08 10:37:46;;;;;;;6.13;4.85;;;4.40;92.30;;;;;;5060677;28;20036;-80
2021/01/08 10:40:12;;;;;;;6.97;5.18;;;4.40;92.20;;;;;;5093701;28;20384;-81
2021/01/08 10:42:38;;;;;;;6.95;4.30;;;4.40;92.30;;;;;;5093071;28;20106;-81
2021/01/08 10:45:05;;;;;;;8.02;5.38;;;4.40;92.40;;;;;;5093321;28;20120;-80
2021/01/08 10:47:30;;;;;;;6.90;5.63;;;4.50;92.50;;;;;;5056168;28;20082;-81
2021/01/08 10:49:56;;;;;;;9.60;6.05;;;4.50;92.40;;;;;;5073293;28;20028;-81
2021/01/08 10:52:22;;;;;;;8.88;6.20;;;4.50;92.40;;;;;;5073125;28;20032;-81
2021/01/08 10:54:47;;;;;;;10.25;5.00;;;4.50;92.40;;;;;;5072581;28;20484;-81
2021/01/08 10:57:13;;;;;;;8.25;4.90;;;4.50;92.30;;;;;;5091575;28;20477;-81
2021/01/08 10:59:39;;;;;;;8.77;7.20;;;4.50;92.30;;;;;;5093008;28;20028;-81
2021/01/08 11:02:04;;;;;;;7.55;5.97;;;4.60;92.40;;;;;;5072944;28;20555;-80
2021/01/08 11:04:30;;;;;;;6.45;4.97;;;4.50;92.20;;;;;;5072928;28;20056;-81
2021/01/08 11:06:56;;;;;;;4.80;4.30;;;4.60;92.30;;;;;;5081332;28;20031;-82
2021/01/08 11:09:22;;;;;;;11.45;6.85;;;4.60;92.30;;;;;;5076317;28;20028;-80
2021/01/08 11:11:47;;;;;;;8.00;6.13;;;4.70;92.30;;;;;;5075884;28;20028;-82
2021/01/08 11:14:13;;;;;;;6.65;5.00;;;4.70;92.30;;;;;;5093029;28;20024;-81
2021/01/08 11:16:39;;;;;;;5.65;4.70;;;4.70;92.00;;;;;;5072388;28;20056;-82
2021/01/08 11:19:04;;;;;;;4.88;4.20;;;4.70;91.50;;;;;;5055816;28;20049;-81
2021/01/08 11:21:30;;;;;;;6.32;4.50;;;4.60;91.60;;;;;;5075816;28;20536;-82
2021/01/08 11:23:55;;;;;;;5.97;4.30;;;4.60;91.60;;;;;;5090527;28;20028;-81
2021/01/08 11:26:29;;;;;;;6.18;4.80;;;4.60;91.90;;;;;;5058986;28;20032;-81
2021/01/08 11:28:57;;;;;;;5.65;4.57;;;4.70;92.00;;;;;;5092568;28;20123;-80
2021/01/08 11:31:37;;;;;;;7.18;4.65;;;4.70;92.00;;;;;;5072612;28;20033;-80
2021/01/08 11:34:04;;;;;;;5.30;4.28;;;4.80;92.10;;;;;;5073665;28;20068;-80
2021/01/08 11:36:30;;;;;;;4.88;3.70;;;4.90;91.90;;;;;;5059193;28;20561;-80
2021/01/08 11:38:56;;;;;;;5.10;3.65;;;4.90;91.50;;;;;;5092314;28;20105;-80
2021/01/08 11:41:22;;;;;;;7.43;3.60;;;4.90;91.50;;;;;;5092651;28;20469;-80
2021/01/08 11:43:48;;;;;;;4.18;3.65;;;5.00;91.50;;;;;;5075478;28;20032;-80
2021/01/08 11:46:18;;;;;;;3.22;2.92;;;5.00;91.90;;;;;;5092673;28;20039;-80
2021/01/08 11:48:44;;;;;;;4.50;3.60;;;5.00;91.50;;;;;;5092963;28;20055;-80
2021/01/08 11:51:14;;;;;;;5.07;3.40;;;5.10;91.40;;;;;;5072075;28;20067;-83
2021/01/08 11:53:44;;;;;;;3.03;2.60;;;5.10;91.10;;;;;;5089061;28;20448;-83
2021/01/08 11:56:10;;;;;;;3.67;2.90;;;5.10;91.20;;;;;;5072496;28;20107;-83
2021/01/08 11:58:43;;;;;;;3.58;3.03;;;5.10;91.00;;;;;;5072656;28;20037;-81
2021/01/08 12:01:10;;;;;;;4.70;3.60;;;5.10;90.90;;;;;;5106065;28;20052;-80
2021/01/08 12:03:37;;;;;;;4.15;3.33;;;5.10;90.80;;;;;;5092308;28;20024;-80
2021/01/08 12:06:04;;;;;;;5.03;3.30;;;5.10;90.90;;;;;;5075731;28;20388;-80
2021/01/08 12:08:31;;;;;;;4.55;3.17;;;5.10;91.00;;;;;;5092060;28;20111;-80
2021/01/08 12:10:59;;;;;;;3.38;2.70;;;5.20;91.10;;;;;;5092492;28;20049;-80
2021/01/08 12:13:25;;;;;;;2.67;2.30;;;5.10;90.50;;;;;;5075754;28;20031;-80
2021/01/08 12:15:51;;;;;;;2.47;2.28;;;5.00;90.60;;;;;;5075587;28;20032;-81
2021/01/08 12:18:18;;;;;;;3.47;2.58;;;5.00;90.60;;;;;;5075435;28;20500;-80
2021/01/08 12:20:45;;;;;;;2.45;2.03;;;5.00;90.80;;;;;;5092528;28;20437;-80
2021/01/08 12:23:11;;;;;;;2.10;1.58;;;5.00;90.60;;;;;;5075373;28;20058;-80
2021/01/08 12:25:41;;;;;;;2.67;2.10;;;5.00;90.70;;;;;;5075667;28;20028;-80
2021/01/08 12:28:07;;;;;;;2.42;1.80;;;5.00;90.70;;;;;;5091921;28;20480;-80
2021/01/08 12:30:33;;;;;;;2.78;2.30;;;5.10;90.60;;;;;;5092945;28;20093;-81
2021/01/08 12:33:00;;;;;;;2.78;2.33;;;5.10;90.20;;;;;;5071685;28;20067;-81
2021/01/08 12:35:26;;;;;;;3.85;2.85;;;5.10;90.00;;;;;;5091550;28;20777;-81
2021/01/08 12:37:53;;;;;;;2.70;2.35;;;5.00;90.10;;;;;;5093147;28;20168;-81
2021/01/08 12:40:20;;;;;;;5.10;3.40;;;5.00;90.20;;;;;;5091804;28;20020;-81
2021/01/08 12:42:47;;;;;;;2.92;2.60;;;5.00;90.40;;;;;;5058424;28;20059;-80
2021/01/08 12:45:14;;;;;;;3.50;2.42;;;4.90;90.50;;;;;;5091987;28;20033;-80
2021/01/08 12:47:40;;;;;;;3.10;2.28;;;4.90;90.60;;;;;;5091965;28;20020;-81
2021/01/08 12:50:06;;;;;;;2.92;2.45;;;4.90;90.60;;;;;;5091962;28;20036;-79